Alafaya, FL

3:47 PM EDT on August 01, 2015 (GMT -0400)
UCF Area / WUCF-FM | | Change Station
CLOSE
Current Station
Personal Weather Station
Location: Orlando, FL
Elevation: 85 ft
Nearby Weather Stations

Elev 85 ft 28.60 °N, 81.20 °W | Updated 2 seconds ago

Rain
Rain
73.4 °F
Feels Like 73.4 °F
N
1.2
Wind Variable Wind from ESE
Gusts 4.0 mph

Today
High -- | Low -- °F
--% Chance of Precip.
Yesterday
High -- | Low -- °F
Precip. -- in
6:46 AM 8:15 PM
Full, 97% visible
Pressure 29.97 in
Visibility 6.0 miles
Clouds Few 1300 ft
Few 6000 ft
Overcast 8000 ft
Dew Point 72 °F
Humidity 97%
Rainfall 1.79 in
Snow Depth Not available.
UV 4 out of 12
Pollen .60 out of 12
Air Quality Not available.
Flu Activity Not available.
SPECI KORL 011907Z 23012G20KT 6SM RA BR FEW013 FEW060 OVC080 23/22 A2997 RMK AO2 LTG DSNT E P0002 T02330222

More Conditions Fewer Conditions

Pressure 29.97 in
Visibility 6.0 miles
Clouds Few 1300 ft
Few 6000 ft
Overcast 8000 ft
Dew Point 72 °F
Humidity 97%
Rainfall 1.79 in
Snow Depth Not available.
UV 4 out of 12
Pollen .60 out of 12
Air Quality Not available.
Flu Activity Not available.
SPECI KORL 011907Z 23012G20KT 6SM RA BR FEW013 FEW060 OVC080 23/22 A2997 RMK AO2 LTG DSNT E P0002 T02330222

More Conditions Fewer Conditions

Nowcast | as of 3:19 PM EDT on August 1, 2015

A squall line will shift well seaward through early evening. Patchy rain and isolated lightning storms will linger over land. There will also be an area with a potential for locally heavy rainfall...especially in Osceola County and possibly extending into south Brevard. Additional details...including graphics are available online at: http://www.Srh.NOAA.Gov/mlb/blog.Php

×

10-Day Weather Forecast

×

Almanac

Astronomy

Aug. 01, 2015 Rise Set
Actual Time
Civil Twilight
Nautical Twilight
Astronomical Twilight
Moon
Length of Visible Light
Length of Day
Tomorrow will be .
, % of the Moon is Illuminated

Today's Extremes

State Highs State Lows

Community

WunderPhotos

Upload Photos

1,843,043 photos uploaded!

WunderBlogs® & News

Nearby

Air Quality

  Air Quality AQ Index Pollutant
Not available.

Snow Depth

Station Depth Elevation

Earthquake Activity

City Distance Mag. Time & Date
Minimum magnitude displayed is 2.5.

Coastal Water Temperatures

Place Temperature

Stations

Nearby Weather Stations

Station Location Temp. Windchill Dew Point Humidity Wind Precip. Elev Updated Type